Aviation Digital Data Service (ADDS)

Output produced by METARs form (1930 UTC 23 January 2018)
found at http://aviationweather.gov/adds/metars/
 
METAR text: KBLU 231852Z AUTO 14005KT 10SM CLR 08/M11 A3027 RMK AO2 SLP239 T00781106
Conditions at: KBLU (EMIGRANT GAP , CA, US) observed 1852 UTC 23 January 2018
Temperature: 7.8°C (46°F)
Dewpoint: -10.6°C (13°F) [RH = 26%]
Pressure (altimeter): 30.27 inches Hg (1025.1 mb)
[Sea-level pressure: 1023.9 mb]
Winds: from the SE (140 degrees) at 6 MPH (5 knots; 2.6 m/s)
Visibility: 10 or more miles (16+ km)
Ceiling: at least 12,000 feet AGL
Clouds: sky clear below 12,000 feet AGL
Weather: automated observation with no human augmentation;
there may or may not be significant weather present at this time